Time;durP1;ratioP1;P1;durP2;ratioP2;P2;SDS_P1;SDS_P2;PMS_P1;PMS_P2;Temp;Humidity;BMP_temperature;BMP_pressure;BME280_temperature;BME280_humidity;BME280_pressure;Samples;Min_cycle;Max_cycle;Signal;HPM_P1;HPM_P2
2021/03/23 00:02:16;;;;;;;;;;;7.40;87.20;;;;;;5035508;28;19905;-85
2021/03/23 00:04:41;;;;;;;;;;;7.40;87.10;;;;;;5035463;28;19920;-86
2021/03/23 00:07:07;;;;;;;;;;;7.30;86.70;;;;;;5052124;28;19905;-86
2021/03/23 00:09:32;;;;;;;;;;;7.40;86.60;;;;;;5035581;28;20376;-87
2021/03/23 00:11:58;;;;;;;;;;;7.30;86.20;;;;;;5053246;28;20415;-85
2021/03/23 00:14:23;;;;;;;;;;;7.30;85.90;;;;;;5035741;28;19951;-86
2021/03/23 00:16:49;;;;;;;;;;;7.30;86.20;;;;;;5035194;28;19904;-86
2021/03/23 00:19:15;;;;;;;;;;;7.30;85.80;;;;;;5035380;28;20347;-85
2021/03/23 00:21:41;;;;;;;;;;;7.30;85.90;;;;;;5035125;28;20439;-88
2021/03/23 00:24:06;;;;;;;;;;;7.30;84.70;;;;;;5035427;28;19905;-85
2021/03/23 00:26:33;;;;;;;;;;;7.30;83.90;;;;;;5053269;28;19947;-85
2021/03/23 00:28:58;;;;;;;;;;;7.30;84.40;;;;;;5035270;28;19959;-86
2021/03/23 00:31:26;;;;;;;;;;;7.30;84.40;;;;;;5035040;28;19905;-86
2021/03/23 00:33:52;;;;;;;;;;;7.30;84.30;;;;;;5051682;28;19943;-85
2021/03/23 00:36:19;;;;;;;;;;;7.30;85.10;;;;;;5052931;28;19904;-87
2021/03/23 00:38:45;;;;;;;;;;;7.20;85.20;;;;;;5053012;28;19912;-86
2021/03/23 00:41:11;;;;;;;;;;;7.20;83.20;;;;;;5035202;28;19904;-85
2021/03/23 00:43:37;;;;;;;;;;;7.20;82.60;;;;;;5035019;28;20003;-85
2021/03/23 00:46:03;;;;;;;;;;;7.20;82.10;;;;;;5035080;28;19904;-86
2021/03/23 00:48:28;;;;;;;;;;;7.20;82.00;;;;;;5035080;28;19908;-85
2021/03/23 00:50:53;;;;;;;;;;;7.20;82.00;;;;;;5035003;28;20328;-86
2021/03/23 00:53:19;;;;;;;;;;;7.30;82.30;;;;;;5036201;28;19996;-85
2021/03/23 00:55:44;;;;;;;;;;;7.30;82.80;;;;;;5039014;28;19980;-86
2021/03/23 00:58:10;;;;;;;;;;;7.20;83.50;;;;;;5039217;28;19923;-86
2021/03/23 01:00:36;;;;;;;;;;;7.20;83.60;;;;;;5056580;28;19905;-85
2021/03/23 01:03:02;;;;;;;;;;;7.30;84.20;;;;;;5038838;28;20505;-85
2021/03/23 01:05:29;;;;;;;;;;;7.30;84.80;;;;;;5056476;28;19963;-85
2021/03/23 01:07:54;;;;;;;;;;;7.30;84.90;;;;;;5056519;28;19927;-86
2021/03/23 01:10:21;;;;;;;;;;;7.30;85.10;;;;;;5037732;28;19905;-87
2021/03/23 01:12:47;;;;;;;;;;;7.30;85.40;;;;;;5056143;28;20050;-86
2021/03/23 01:15:14;;;;;;;;;;;7.30;85.90;;;;;;5038152;28;20384;-86
2021/03/23 01:17:40;;;;;;;;;;;7.30;86.00;;;;;;5038225;28;20297;-87
2021/03/23 01:20:06;;;;;;;;;;;7.30;85.80;;;;;;5054497;28;19905;-86
2021/03/23 01:22:32;;;;;;;;;;;7.30;86.00;;;;;;5056203;28;19912;-86
2021/03/23 01:24:57;;;;;;;;;;;7.30;86.20;;;;;;5056068;28;20350;-87
2021/03/23 01:27:23;;;;;;;;;;;7.30;86.20;;;;;;5038013;28;19919;-86
2021/03/23 01:29:48;;;;;;;;;;;7.30;85.90;;;;;;5037336;28;19939;-85
2021/03/23 01:32:14;;;;;;;;;;;7.30;85.60;;;;;;5037730;28;19909;-86
2021/03/23 01:34:39;;;;;;;;;;;7.20;85.80;;;;;;5054512;28;20417;-87
2021/03/23 01:37:05;;;;;;;;;;;7.20;85.60;;;;;;5055631;28;20301;-86
2021/03/23 01:39:30;;;;;;;;;;;7.20;85.70;;;;;;5037332;28;19921;-86
2021/03/23 01:41:56;;;;;;;;;;;7.20;85.90;;;;;;5037677;28;19905;-87
2021/03/23 01:44:21;;;;;;;;;;;7.20;86.10;;;;;;5037707;28;19942;-86
2021/03/23 01:46:50;;;;;;;;;;;7.20;86.10;;;;;;5037562;28;19939;-85
2021/03/23 01:49:28;;;;;;;;;;;7.20;85.90;;;;;;5054796;28;19943;-86
2021/03/23 01:51:55;;;;;;;;;;;7.20;86.20;;;;;;5037272;28;19931;-87
2021/03/23 01:54:21;;;;;;;;;;;7.20;86.50;;;;;;5055397;28;19912;-87
2021/03/23 01:56:48;;;;;;;;;;;7.20;86.50;;;;;;5037391;28;19905;-87
2021/03/23 01:59:13;;;;;;;;;;;7.20;86.70;;;;;;5036816;28;20285;-86
2021/03/23 02:01:40;;;;;;;;;;;7.20;86.90;;;;;;5037358;28;19905;-87
2021/03/23 02:04:05;;;;;;;;;;;7.10;86.90;;;;;;5036892;28;19911;-86
2021/03/23 02:06:34;;;;;;;;;;;7.10;87.10;;;;;;5036793;28;19904;-86
2021/03/23 02:09:00;;;;;;;;;;;7.10;87.50;;;;;;5054459;28;20377;-85
2021/03/23 02:11:26;;;;;;;;;;;7.00;87.50;;;;;;5055347;28;19919;-85
2021/03/23 02:13:52;;;;;;;;;;;7.00;87.70;;;;;;5055132;28;19954;-86
2021/03/23 02:16:18;;;;;;;;;;;7.00;88.00;;;;;;5037452;28;19947;-87
2021/03/23 02:18:44;;;;;;;;;;;7.10;88.40;;;;;;5037184;28;19912;-86
2021/03/23 02:21:10;;;;;;;;;;;7.00;88.50;;;;;;5036382;28;19912;-85
2021/03/23 02:23:42;;;;;;;;;;;7.10;88.90;;;;;;5053762;28;19932;-86
2021/03/23 02:26:09;;;;;;;;;;;7.00;88.60;;;;;;5055008;28;19904;-86
2021/03/23 02:28:39;;;;;;;;;;;7.10;88.60;;;;;;5054767;28;19909;-87
2021/03/23 02:31:04;;;;;;;;;;;7.10;88.60;;;;;;5053708;28;20354;-86
2021/03/23 02:33:30;;;;;;;;;;;7.10;88.80;;;;;;5036530;28;19908;-87
2021/03/23 02:35:55;;;;;;;;;;;7.10;88.60;;;;;;5036623;28;19912;-86
2021/03/23 02:38:20;;;;;;;;;;;7.10;87.90;;;;;;5036425;28;19904;-87
2021/03/23 02:40:46;;;;;;;;;;;7.10;88.00;;;;;;5053672;28;19911;-85
2021/03/23 02:43:12;;;;;;;;;;;7.00;88.10;;;;;;5036395;28;20305;-86
2021/03/23 02:45:38;;;;;;;;;;;7.10;88.00;;;;;;5036401;28;19956;-86
2021/03/23 02:48:04;;;;;;;;;;;7.10;88.00;;;;;;5036403;28;19923;-86
2021/03/23 02:50:29;;;;;;;;;;;7.10;88.20;;;;;;5035748;28;19905;-87
2021/03/23 02:52:55;;;;;;;;;;;7.10;88.20;;;;;;5036316;28;19908;-87
2021/03/23 02:55:20;;;;;;;;;;;7.00;88.20;;;;;;5036273;28;19932;-87
2021/03/23 02:57:46;;;;;;;;;;;7.10;88.30;;;;;;5036628;28;19927;-86
2021/03/23 03:00:13;;;;;;;;;;;7.10;88.30;;;;;;5035606;28;19905;-86
2021/03/23 03:02:39;;;;;;;;;;;7.10;88.00;;;;;;5053983;28;20328;-86
2021/03/23 03:05:05;;;;;;;;;;;7.10;88.10;;;;;;5054193;28;19905;-86
2021/03/23 03:07:31;;;;;;;;;;;7.20;88.20;;;;;;5053867;28;19908;-86
2021/03/23 03:09:56;;;;;;;;;;;7.20;89.00;;;;;;5034729;28;19937;-86
2021/03/23 03:12:22;;;;;;;;;;;7.10;88.50;;;;;;5035021;28;19909;-86
2021/03/23 03:14:47;;;;;;;;;;;7.10;88.50;;;;;;5036219;28;20015;-86
2021/03/23 03:17:13;;;;;;;;;;;7.20;89.20;;;;;;5052409;28;19905;-86
2021/03/23 03:19:38;;;;;;;;;;;7.10;88.40;;;;;;5053352;28;19908;-86
2021/03/23 03:22:04;;;;;;;;;;;7.10;88.60;;;;;;5035832;28;20342;-86
2021/03/23 03:24:30;;;;;;;;;;;7.10;88.60;;;;;;5053859;28;19905;-86
2021/03/23 03:26:55;;;;;;;;;;;7.10;88.70;;;;;;5052569;28;19920;-86
2021/03/23 03:29:21;;;;;;;;;;;7.20;88.70;;;;;;5053268;28;19905;-86
2021/03/23 03:31:46;;;;;;;;;;;7.20;88.60;;;;;;5035629;28;19999;-86
2021/03/23 03:34:12;;;;;;;;;;;7.20;88.30;;;;;;5052337;28;19962;-86
2021/03/23 03:36:37;;;;;;;;;;;7.10;88.60;;;;;;5053604;28;19974;-86
2021/03/23 03:39:04;;;;;;;;;;;7.10;88.90;;;;;;5035112;28;19958;-86
2021/03/23 03:41:29;;;;;;;;;;;7.10;88.50;;;;;;5053530;28;19908;-86
2021/03/23 03:43:55;;;;;;;;;;;7.10;88.90;;;;;;5035681;28;19905;-86
2021/03/23 03:46:21;;;;;;;;;;;7.10;88.90;;;;;;5035585;28;19940;-86
2021/03/23 03:48:46;;;;;;;;;;;7.10;88.90;;;;;;5053297;28;19944;-86
2021/03/23 03:51:12;;;;;;;;;;;7.20;88.60;;;;;;5035305;28;19904;-87
2021/03/23 03:53:38;;;;;;;;;;;7.20;88.30;;;;;;5035340;28;19908;-86
2021/03/23 03:56:04;;;;;;;;;;;7.20;88.20;;;;;;5035610;28;20443;-86
2021/03/23 03:58:29;;;;;;;;;;;7.20;88.50;;;;;;5035294;28;19957;-86
2021/03/23 04:00:55;;;;;;;;;;;7.10;88.10;;;;;;5034656;28;20262;-86
2021/03/23 04:03:23;;;;;;;;;;;7.10;88.20;;;;;;5035297;28;19912;-86
2021/03/23 04:05:50;;;;;;;;;;;7.10;88.10;;;;;;5035411;28;19963;-86
2021/03/23 04:08:19;;;;;;;;;;;7.10;88.30;;;;;;5035368;28;19911;-86
2021/03/23 04:10:44;;;;;;;;;;;7.10;88.60;;;;;;5034351;28;19905;-86
2021/03/23 04:13:10;;;;;;;;;;;7.10;88.30;;;;;;5035167;28;19916;-86
2021/03/23 04:15:37;;;;;;;;;;;7.10;88.50;;;;;;5052964;28;19912;-86
2021/03/23 04:18:03;;;;;;;;;;;7.10;88.60;;;;;;5034902;28;19952;-86
2021/03/23 04:20:29;;;;;;;;;;;7.00;88.60;;;;;;5034244;28;20007;-86
2021/03/23 04:22:54;;;;;;;;;;;7.00;88.70;;;;;;5034989;28;19948;-87
2021/03/23 04:25:21;;;;;;;;;;;7.00;89.00;;;;;;5035067;28;20292;-86
2021/03/23 04:27:47;;;;;;;;;;;7.00;89.00;;;;;;5052093;28;19909;-86
2021/03/23 04:30:13;;;;;;;;;;;7.00;89.40;;;;;;5034547;28;20354;-86
2021/03/23 04:32:39;;;;;;;;;;;7.00;89.60;;;;;;5034731;28;19927;-85
2021/03/23 04:35:06;;;;;;;;;;;7.00;89.80;;;;;;5034895;28;19908;-86
2021/03/23 04:37:33;;;;;;;;;;;7.00;89.60;;;;;;5034927;28;20417;-86
2021/03/23 04:39:59;;;;;;;;;;;7.00;89.20;;;;;;5034184;28;19958;-86
2021/03/23 04:42:25;;;;;;;;;;;7.10;89.30;;;;;;5034481;28;19905;-86
2021/03/23 04:44:50;;;;;;;;;;;7.10;89.30;;;;;;5035107;28;19905;-86
2021/03/23 04:47:16;;;;;;;;;;;7.10;89.40;;;;;;5035005;28;19928;-86
2021/03/23 04:49:41;;;;;;;;;;;7.10;89.60;;;;;;5034248;28;19909;-87
2021/03/23 04:52:07;;;;;;;;;;;7.00;89.30;;;;;;5034895;28;19912;-86
2021/03/23 04:54:33;;;;;;;;;;;7.10;89.00;;;;;;5034868;28;19905;-87
2021/03/23 04:56:58;;;;;;;;;;;7.10;89.10;;;;;;5053968;28;19909;-86
2021/03/23 04:59:24;;;;;;;;;;;7.10;88.90;;;;;;5036435;28;20003;-87
2021/03/23 05:01:49;;;;;;;;;;;7.20;88.70;;;;;;5054586;28;19912;-85
2021/03/23 05:04:16;;;;;;;;;;;7.10;88.70;;;;;;5037059;28;20282;-86
2021/03/23 05:06:42;;;;;;;;;;;7.10;88.70;;;;;;5036556;28;19905;-86
2021/03/23 05:09:07;;;;;;;;;;;7.10;88.70;;;;;;5051621;28;20011;-86
2021/03/23 05:11:34;;;;;;;;;;;7.10;88.50;;;;;;5052408;28;19963;-86
2021/03/23 05:13:59;;;;;;;;;;;7.10;88.80;;;;;;5034612;28;20362;-87
2021/03/23 05:16:25;;;;;;;;;;;7.10;89.20;;;;;;5034441;28;19919;-86
2021/03/23 05:18:51;;;;;;;;;;;7.00;89.60;;;;;;5034413;28;19904;-86
2021/03/23 05:21:17;;;;;;;;;;;7.10;89.70;;;;;;5034005;28;20380;-86
2021/03/23 05:23:42;;;;;;;;;;;7.10;90.00;;;;;;5034522;28;19947;-87
2021/03/23 05:26:08;;;;;;;;;;;7.10;90.20;;;;;;5034536;28;19912;-86
2021/03/23 05:28:34;;;;;;;;;;;7.00;90.20;;;;;;5034668;28;19995;-86
2021/03/23 05:31:00;;;;;;;;;;;7.00;90.30;;;;;;5033978;28;20388;-86
2021/03/23 05:33:26;;;;;;;;;;;7.00;90.40;;;;;;5034034;28;19909;-86
2021/03/23 05:35:52;;;;;;;;;;;7.00;90.40;;;;;;5034457;28;20358;-86
2021/03/23 05:38:19;;;;;;;;;;;6.90;90.40;;;;;;5034083;28;19944;-86
2021/03/23 05:40:46;;;;;;;;;;;7.00;90.40;;;;;;5036736;28;19905;-86
2021/03/23 05:43:17;;;;;;;;;;;7.00;90.30;;;;;;5055457;28;20387;-86
2021/03/23 05:45:42;;;;;;;;;;;7.00;90.10;;;;;;5037731;28;20099;-86
2021/03/23 05:48:14;;;;;;;;;;;7.00;90.10;;;;;;5055498;28;19909;-86
2021/03/23 05:50:42;;;;;;;;;;;7.00;89.80;;;;;;5037265;28;19905;-86
2021/03/23 05:53:12;;;;;;;;;;;7.00;90.00;;;;;;5055630;28;19908;-86
2021/03/23 05:55:46;;;;;;;;;;;7.00;90.00;;;;;;5039230;28;19905;-86
2021/03/23 05:58:17;;;;;;;;;;;7.00;90.10;;;;;;5038725;28;19905;-85
2021/03/23 06:00:48;;;;;;;;;;;7.10;90.10;;;;;;5054615;28;20024;-86
2021/03/23 06:03:22;;;;;;;;;;;7.10;89.80;;;;;;5056006;28;19900;-85
2021/03/23 06:24:52;;;;;;;;;;;7.00;89.70;;;;;;4957554;28;19921;-86
2021/03/23 06:30:27;;;;;;;;;;;7.10;89.40;;;;;;5054983;28;20396;-86
2021/03/23 06:32:54;;;;;;;;;;;7.10;89.30;;;;;;5037193;28;19921;-86
2021/03/23 06:35:20;;;;;;;;;;;7.10;89.10;;;;;;5037652;28;19967;-86
2021/03/23 06:37:45;;;;;;;;;;;7.10;89.20;;;;;;5037551;28;20324;-86
2021/03/23 06:40:26;;;;;;;;;;;7.10;89.10;;;;;;5053287;28;19911;-86
2021/03/23 06:42:53;;;;;;;;;;;7.10;88.90;;;;;;5037177;28;19912;-85
2021/03/23 06:45:20;;;;;;;;;;;7.10;89.20;;;;;;5037405;28;19909;-86
2021/03/23 06:47:46;;;;;;;;;;;7.10;89.00;;;;;;5037164;28;19954;-86
2021/03/23 06:50:14;;;;;;;;;;;7.10;89.30;;;;;;5054396;28;20345;-86
2021/03/23 06:52:40;;;;;;;;;;;7.10;89.50;;;;;;5054393;28;19909;-87
2021/03/23 06:55:06;;;;;;;;;;;7.20;89.40;;;;;;5037442;28;20407;-87
2021/03/23 06:57:34;;;;;;;;;;;7.10;88.90;;;;;;5037181;28;19905;-86
2021/03/23 06:59:59;;;;;;;;;;;7.20;89.10;;;;;;5036586;28;19904;-86
2021/03/23 07:02:33;;;;;;;;;;;7.10;89.00;;;;;;5036991;28;19911;-86
2021/03/23 07:05:17;;;;;;;;;;;7.20;89.20;;;;;;5036850;28;19909;-86
2021/03/23 07:07:54;;;;;;;;;;;7.30;89.00;;;;;;5054857;28;19920;-86
2021/03/23 07:10:22;;;;;;;;;;;7.30;88.80;;;;;;5054275;28;19995;-86
2021/03/23 07:12:49;;;;;;;;;;;7.30;88.50;;;;;;5036973;28;19909;-86
2021/03/23 07:15:20;;;;;;;;;;;7.40;88.60;;;;;;5037411;28;19952;-86
2021/03/23 07:17:48;;;;;;;;;;;7.40;88.60;;;;;;5055524;28;19912;-86
2021/03/23 07:20:22;;;;;;;;;;;7.40;88.40;;;;;;5055274;28;19958;-86
2021/03/23 07:22:51;;;;;;;;;;;7.40;88.00;;;;;;5037624;28;19930;-85
2021/03/23 07:25:26;;;;;;;;;;;7.40;88.40;;;;;;5037315;28;19913;-86
2021/03/23 07:28:11;;;;;;;;;;;7.40;88.20;;;;;;5054986;28;20000;-86
2021/03/23 07:30:38;;;;;;;;;;;7.50;88.40;;;;;;5055157;28;19905;-86
2021/03/23 07:33:09;;;;;;;;;;;7.50;88.40;;;;;;5036502;28;19963;-86
2021/03/23 07:35:39;;;;;;;;;;;7.50;88.20;;;;;;5054739;28;19905;-86
2021/03/23 07:38:17;;;;;;;;;;;7.50;88.30;;;;;;5036251;28;19908;-86
2021/03/23 07:40:45;;;;;;;;;;;7.50;88.50;;;;;;5035328;28;20300;-86
2021/03/23 07:43:16;;;;;;;;;;;7.60;88.50;;;;;;5035780;28;20425;-86
2021/03/23 07:46:01;;;;;;;;;;;7.60;88.30;;;;;;5035976;28;19905;-87
2021/03/23 07:48:31;;;;;;;;;;;7.60;88.50;;;;;;5053744;28;19915;-86
2021/03/23 07:51:09;;;;;;;;;;;7.70;88.60;;;;;;5053794;28;20000;-86
2021/03/23 07:53:35;;;;;;;;;;;7.70;88.40;;;;;;5053962;28;19915;-86
2021/03/23 07:56:15;;;;;;;;;;;7.70;88.40;;;;;;5054041;28;19995;-86
2021/03/23 07:58:47;;;;;;;;;;;7.70;88.40;;;;;;5035453;28;19996;-86
2021/03/23 08:01:15;;;;;;;;;;;7.70;89.00;;;;;;5035284;28;20403;-86
2021/03/23 08:03:43;;;;;;;;;;;7.70;88.60;;;;;;5052189;28;19919;-86
2021/03/23 08:06:09;;;;;;;;;;;7.70;88.60;;;;;;5036396;28;19995;-86
2021/03/23 08:08:54;;;;;;;;;;;7.70;88.60;;;;;;5035041;28;19958;-87
2021/03/23 08:11:38;;;;;;;;;;;7.80;88.80;;;;;;5034845;28;20266;-86
2021/03/23 08:14:13;;;;;;;;;;;7.80;89.00;;;;;;5034941;28;19909;-86
2021/03/23 08:16:58;;;;;;;;;;;7.80;88.50;;;;;;5034725;28;19988;-86
2021/03/23 08:19:38;;;;;;;;;;;7.80;88.60;;;;;;5034345;28;20345;-86
2021/03/23 08:22:04;;;;;;;;;;;7.80;88.70;;;;;;5034811;28;19924;-85
2021/03/23 08:24:50;;;;;;;;;;;7.90;88.60;;;;;;5034666;28;20300;-86
2021/03/23 08:27:18;;;;;;;;;;;7.90;88.40;;;;;;5024111;28;19905;-86
2021/03/23 08:29:50;;;;;;;;;;;7.90;88.40;;;;;;5052002;28;19905;-86
2021/03/23 08:32:26;;;;;;;;;;;7.90;88.50;;;;;;5034704;28;19995;-86
2021/03/23 08:35:09;;;;;;;;;;;7.90;88.30;;;;;;5034796;28;19905;-86
2021/03/23 08:37:37;;;;;;;;;;;8.00;88.30;;;;;;5052645;28;19911;-86
2021/03/23 08:40:05;;;;;;;;;;;8.00;88.10;;;;;;5034682;28;19908;-86
2021/03/23 08:42:31;;;;;;;;;;;8.00;88.20;;;;;;5034676;28;20341;-86
2021/03/23 08:44:59;;;;;;;;;;;8.00;88.20;;;;;;5034545;28;20247;-85
2021/03/23 08:47:28;;;;;;;;;;;8.10;88.30;;;;;;5034508;28;20420;-86
2021/03/23 08:49:55;;;;;;;;;;;8.10;88.10;;;;;;5034332;28;20407;-85
2021/03/23 08:52:26;;;;;;;;;;;8.10;88.00;;;;;;5034415;28;19909;-86
2021/03/23 08:54:52;;;;;;;;;;;8.20;87.90;;;;;;5034526;28;19926;-86
2021/03/23 08:57:18;;;;;;;;;;;8.20;88.30;;;;;;5034704;28;19905;-86
2021/03/23 08:59:46;;;;;;;;;;;8.30;88.10;;;;;;5034229;28;19912;-86
2021/03/23 09:02:11;;;;;;;;;;;8.30;87.60;;;;;;5052489;28;19904;-86
2021/03/23 09:04:38;;;;;;;;;;;8.30;87.50;;;;;;5034884;28;20424;-86
2021/03/23 09:07:12;;;;;;;;;;;8.40;87.90;;;;;;5052161;28;20027;-86
2021/03/23 09:09:44;;;;;;;;;;;8.40;87.60;;;;;;5051676;28;19919;-86
2021/03/23 09:12:28;;;;;;;;;;;8.40;87.50;;;;;;5052689;28;19909;-86
2021/03/23 09:15:03;;;;;;;;;;;8.50;87.70;;;;;;5036909;28;19946;-86
2021/03/23 09:17:47;;;;;;;;;;;8.50;87.20;;;;;;5056758;28;19904;-86
2021/03/23 09:20:48;;;;;;;;;;;8.60;86.90;;;;;;5038601;28;19911;-86
2021/03/23 09:23:24;;;;;;;;;;;8.60;86.60;;;;;;5014728;28;19905;-87
2021/03/23 09:25:53;;;;;;;;;;;8.60;86.70;;;;;;5035902;28;20303;-86
2021/03/23 09:28:44;;;;;;;;;;;8.60;86.60;;;;;;5038969;28;19905;-86
2021/03/23 09:31:39;;;;;;;;;;;8.60;86.20;;;;;;5037952;28;19911;-86
2021/03/23 09:34:26;;;;;;;;;;;8.70;86.00;;;;;;5037986;28;20000;-86
2021/03/23 09:36:52;;;;;;;;;;;8.60;85.30;;;;;;5056324;28;19919;-86
2021/03/23 09:39:17;;;;;;;;;;;8.70;85.80;;;;;;5054404;28;19905;-86
2021/03/23 09:42:12;;;;;;;;;;;8.70;86.10;;;;;;5056098;28;20300;-86
2021/03/23 09:44:43;;;;;;;;;;;8.70;85.70;;;;;;5033714;28;19904;-86
2021/03/23 09:47:29;;;;;;;;;;;8.80;86.00;;;;;;5038035;28;19908;-86
2021/03/23 09:49:54;;;;;;;;;;;8.80;85.90;;;;;;5037400;28;19919;-86
2021/03/23 09:52:25;;;;;;;;;;;8.80;85.80;;;;;;5056071;28;19912;-86
2021/03/23 09:54:53;;;;;;;;;;;8.80;85.40;;;;;;5037843;28;20400;-86
2021/03/23 09:57:20;;;;;;;;;;;8.80;85.80;;;;;;5038636;28;19905;-87
2021/03/23 09:59:47;;;;;;;;;;;8.90;85.90;;;;;;5037577;28;19905;-86
2021/03/23 10:02:29;;;;;;;;;;;8.80;85.70;;;;;;5056816;28;19905;-86
2021/03/23 10:04:55;;;;;;;;;;;8.90;85.20;;;;;;5038902;28;19904;-86
2021/03/23 10:07:25;;;;;;;;;;;8.90;85.60;;;;;;5056690;28;20023;-86
2021/03/23 10:09:50;;;;;;;;;;;8.90;85.40;;;;;;5038611;28;19937;-86
2021/03/23 10:12:27;;;;;;;;;;;8.90;85.30;;;;;;5038386;28;19963;-86
2021/03/23 10:14:53;;;;;;;;;;;9.00;85.60;;;;;;5056181;28;19904;-86
2021/03/23 10:17:23;;;;;;;;;;;9.00;85.30;;;;;;5038319;28;19908;-86
2021/03/23 10:19:54;;;;;;;;;;;9.00;84.80;;;;;;5037197;28;19960;-86
2021/03/23 10:22:30;;;;;;;;;;;9.00;84.80;;;;;;5037724;28;20274;-86
2021/03/23 10:24:56;;;;;;;;;;;9.10;84.60;;;;;;5037666;28;19966;-86
2021/03/23 10:27:26;;;;;;;;;;;9.20;83.90;;;;;;5037027;28;19912;-86
2021/03/23 10:30:11;;;;;;;;;;;9.20;83.80;;;;;;5037055;28;20387;-86
2021/03/23 10:32:42;;;;;;;;;;;9.20;83.60;;;;;;5037481;28;19908;-87
2021/03/23 10:35:11;;;;;;;;;;;9.30;83.30;;;;;;5037770;28;19904;-87
2021/03/23 10:37:37;;;;;;;;;;;9.30;83.10;;;;;;5038280;28;19912;-86
2021/03/23 10:40:04;;;;;;;;;;;9.40;83.10;;;;;;5037937;28;19904;-86
2021/03/23 10:42:31;;;;;;;;;;;9.50;83.60;;;;;;5037691;28;19909;-87
2021/03/23 10:45:15;;;;;;;;;;;9.50;82.60;;;;;;5038162;28;20358;-86
2021/03/23 10:47:44;;;;;;;;;;;9.50;82.30;;;;;;5056451;28;19904;-87
2021/03/23 10:50:24;;;;;;;;;;;9.70;82.50;;;;;;5037204;28;19905;-86
2021/03/23 10:52:51;;;;;;;;;;;9.60;82.10;;;;;;5037737;28;19908;-87
2021/03/23 10:55:23;;;;;;;;;;;9.60;82.50;;;;;;5037510;28;20284;-87
2021/03/23 10:57:48;;;;;;;;;;;9.60;82.20;;;;;;5038574;28;19908;-86
2021/03/23 11:00:19;;;;;;;;;;;9.60;82.70;;;;;;5054185;28;20326;-87
2021/03/23 11:02:44;;;;;;;;;;;9.70;82.20;;;;;;5037462;28;19904;-86
2021/03/23 11:05:12;;;;;;;;;;;9.70;82.80;;;;;;5054414;28;19973;-87
2021/03/23 11:07:39;;;;;;;;;;;9.70;82.30;;;;;;5038164;28;20471;-87
2021/03/23 11:10:07;;;;;;;;;;;9.70;82.40;;;;;;5036982;28;19999;-87
2021/03/23 11:12:33;;;;;;;;;;;9.80;82.80;;;;;;5055485;28;19908;-86
2021/03/23 11:14:59;;;;;;;;;;;9.80;82.50;;;;;;5055682;28;19922;-86
2021/03/23 11:17:25;;;;;;;;;;;9.80;82.10;;;;;;5055033;28;19905;-86
2021/03/23 11:19:57;;;;;;;;;;;9.90;81.60;;;;;;5036284;28;19905;-87
2021/03/23 11:22:27;;;;;;;;;;;9.90;81.60;;;;;;5036939;28;19908;-87
2021/03/23 11:24:54;;;;;;;;;;;9.90;82.60;;;;;;5036913;28;19930;-86
2021/03/23 11:27:21;;;;;;;;;;;10.00;82.00;;;;;;5037191;28;19951;-86
2021/03/23 11:29:47;;;;;;;;;;;10.00;82.10;;;;;;5054561;28;20046;-86
2021/03/23 11:32:12;;;;;;;;;;;10.10;81.70;;;;;;5036122;28;20043;-86
2021/03/23 11:34:39;;;;;;;;;;;10.10;81.90;;;;;;5053151;28;19915;-86
2021/03/23 11:37:04;;;;;;;;;;;10.10;81.80;;;;;;5036401;28;19915;-87
2021/03/23 11:39:30;;;;;;;;;;;10.10;82.00;;;;;;5053506;28;19983;-86
2021/03/23 11:41:58;;;;;;;;;;;10.10;82.30;;;;;;5053800;28;19943;-86
2021/03/23 11:44:26;;;;;;;;;;;10.10;81.90;;;;;;5035961;28;19912;-86
2021/03/23 11:46:58;;;;;;;;;;;10.20;82.10;;;;;;5053320;28;19930;-86
2021/03/23 11:49:34;;;;;;;;;;;10.20;82.30;;;;;;5035551;28;19905;-86
2021/03/23 11:52:00;;;;;;;;;;;10.20;82.20;;;;;;5036818;28;19946;-87
2021/03/23 11:54:26;;;;;;;;;;;10.20;82.30;;;;;;5036444;28;20378;-87
2021/03/23 11:56:52;;;;;;;;;;;10.30;82.30;;;;;;5036128;28;19909;-87
2021/03/23 11:59:18;;;;;;;;;;;10.30;82.30;;;;;;5053355;28;19912;-86
2021/03/23 12:01:44;;;;;;;;;;;10.30;82.50;;;;;;5053866;28;19905;-86
2021/03/23 12:04:09;;;;;;;;;;;10.30;82.30;;;;;;5035399;28;19905;-87
2021/03/23 12:06:35;;;;;;;;;;;10.30;81.90;;;;;;5035365;28;19928;-86
2021/03/23 12:09:02;;;;;;;;;;;10.40;82.50;;;;;;5034959;28;20087;-87
2021/03/23 12:11:39;;;;;;;;;;;10.40;82.50;;;;;;5035567;28;20537;-87
2021/03/23 12:14:08;;;;;;;;;;;10.40;82.30;;;;;;5035883;28;19915;-87
2021/03/23 12:16:43;;;;;;;;;;;10.40;83.50;;;;;;5035901;28;19905;-86
2021/03/23 12:19:11;;;;;;;;;;;10.40;82.50;;;;;;5053334;28;19912;-87
2021/03/23 12:21:37;;;;;;;;;;;10.40;81.50;;;;;;5035589;28;19987;-87
2021/03/23 12:24:03;;;;;;;;;;;10.40;81.20;;;;;;5053514;28;20358;-86
2021/03/23 12:26:29;;;;;;;;;;;10.40;81.80;;;;;;5035403;28;19908;-86
2021/03/23 12:28:54;;;;;;;;;;;10.30;82.50;;;;;;5052391;28;19943;-86
2021/03/23 12:31:20;;;;;;;;;;;10.40;82.50;;;;;;5034782;28;20039;-86
2021/03/23 12:33:46;;;;;;;;;;;10.40;82.60;;;;;;5035046;28;20003;-86
2021/03/23 12:36:13;;;;;;;;;;;10.40;82.60;;;;;;5035288;28;19905;-86
2021/03/23 12:38:39;;;;;;;;;;;10.40;82.90;;;;;;5034862;28;20304;-86
2021/03/23 12:41:05;;;;;;;;;;;10.40;82.20;;;;;;5053225;28;19912;-87
2021/03/23 12:43:30;;;;;;;;;;;10.50;82.70;;;;;;5054574;28;19905;-86
2021/03/23 12:45:57;;;;;;;;;;;10.50;81.60;;;;;;5037051;28;19905;-86
2021/03/23 12:48:24;;;;;;;;;;;10.50;82.00;;;;;;5054420;28;19905;-86
2021/03/23 12:50:49;;;;;;;;;;;10.50;82.00;;;;;;5039954;28;19909;-87
2021/03/23 12:53:16;;;;;;;;;;;10.50;82.20;;;;;;5039582;28;19971;-86
2021/03/23 12:55:43;;;;;;;;;;;10.40;82.50;;;;;;5040354;28;19904;-86
2021/03/23 12:58:12;;;;;;;;;;;10.40;82.40;;;;;;5058299;28;20308;-87
2021/03/23 13:00:40;;;;;;;;;;;10.40;82.50;;;;;;5057794;28;19905;-86
2021/03/23 13:03:09;;;;;;;;;;;10.50;82.00;;;;;;5058843;28;19987;-87
2021/03/23 13:05:34;;;;;;;;;;;10.50;82.00;;;;;;5040395;28;19905;-87
2021/03/23 13:08:01;;;;;;;;;;;10.50;82.20;;;;;;5040059;28;19927;-87
2021/03/23 13:10:31;;;;;;;;;;;10.50;82.00;;;;;;5057376;28;19936;-87
2021/03/23 13:12:58;;;;;;;;;;;10.50;82.40;;;;;;5040271;28;19909;-87
2021/03/23 13:15:24;;;;;;;;;;;10.50;82.30;;;;;;5040578;28;19927;-87
2021/03/23 13:17:50;;;;;;;;;;;10.60;82.50;;;;;;5058514;28;19963;-87
2021/03/23 13:20:16;;;;;;;;;;;10.60;81.10;;;;;;5039921;28;19913;-87
2021/03/23 13:22:43;;;;;;;;;;;10.60;81.20;;;;;;5039801;28;19905;-86
2021/03/23 13:25:19;;;;;;;;;;;10.60;80.10;;;;;;5038632;28;19939;-85
2021/03/23 13:27:45;;;;;;;;;;;10.70;80.90;;;;;;5056480;28;19905;-86
2021/03/23 13:30:15;;;;;;;;;;;10.70;80.20;;;;;;5056385;28;19932;-86
2021/03/23 13:32:41;;;;;;;;;;;10.70;80.70;;;;;;5038045;28;19913;-85
2021/03/23 13:35:09;;;;;;;;;;;10.70;81.30;;;;;;5038789;28;20250;-87
2021/03/23 13:37:35;;;;;;;;;;;10.70;81.40;;;;;;5038673;28;19905;-86
2021/03/23 13:40:04;;;;;;;;;;;10.70;81.40;;;;;;5038570;28;19974;-86
2021/03/23 13:42:31;;;;;;;;;;;10.70;81.70;;;;;;5038214;28;19931;-86
2021/03/23 13:44:56;;;;;;;;;;;10.60;81.40;;;;;;5038529;28;19905;-85
2021/03/23 13:47:22;;;;;;;;;;;10.70;81.70;;;;;;5038549;28;19935;-85
2021/03/23 13:49:49;;;;;;;;;;;10.70;81.40;;;;;;5038066;28;19905;-86
2021/03/23 13:52:19;;;;;;;;;;;10.70;81.70;;;;;;5038107;28;20349;-86
2021/03/23 13:54:45;;;;;;;;;;;10.70;81.00;;;;;;5037888;28;19905;-86
2021/03/23 13:57:11;;;;;;;;;;;10.70;81.60;;;;;;5037817;28;19958;-86
2021/03/23 13:59:37;;;;;;;;;;;10.70;81.10;;;;;;5037887;28;19911;-86
2021/03/23 14:02:02;;;;;;;;;;;10.70;81.30;;;;;;5037745;28;20364;-86
2021/03/23 14:04:28;;;;;;;;;;;10.80;80.90;;;;;;5037815;28;20208;-86
2021/03/23 14:06:54;;;;;;;;;;;10.80;79.00;;;;;;5037671;28;19912;-86
2021/03/23 14:09:30;;;;;;;;;;;10.80;79.20;;;;;;5037776;28;20273;-86
2021/03/23 14:11:57;;;;;;;;;;;10.90;80.00;;;;;;5037851;28;19905;-86
2021/03/23 14:14:23;;;;;;;;;;;10.80;79.70;;;;;;5037676;28;19935;-87
2021/03/23 14:16:48;;;;;;;;;;;10.80;80.00;;;;;;5037510;28;20408;-86
2021/03/23 14:19:17;;;;;;;;;;;10.80;80.40;;;;;;5037539;28;19905;-86
2021/03/23 14:21:42;;;;;;;;;;;10.80;80.20;;;;;;5038517;28;19909;-85
2021/03/23 14:24:16;;;;;;;;;;;10.80;80.60;;;;;;5037824;28;20423;-86
2021/03/23 14:26:42;;;;;;;;;;;10.70;80.10;;;;;;5037647;28;19909;-86
2021/03/23 14:29:08;;;;;;;;;;;10.80;80.20;;;;;;5037588;28;20039;-86
2021/03/23 14:31:34;;;;;;;;;;;10.80;80.70;;;;;;5037312;28;20411;-86
2021/03/23 14:34:00;;;;;;;;;;;10.80;80.20;;;;;;5037527;28;19909;-86
2021/03/23 14:36:28;;;;;;;;;;;10.80;80.30;;;;;;5037462;28;19982;-86
2021/03/23 14:38:57;;;;;;;;;;;10.90;80.70;;;;;;5037217;28;19908;-87
2021/03/23 14:41:28;;;;;;;;;;;10.80;80.30;;;;;;5036984;28;19908;-86
2021/03/23 14:43:54;;;;;;;;;;;10.90;80.40;;;;;;5037295;28;19905;-86
2021/03/23 14:46:24;;;;;;;;;;;10.90;79.30;;;;;;5037376;28;20345;-86
2021/03/23 14:48:50;;;;;;;;;;;10.90;79.20;;;;;;5036944;28;19950;-86
2021/03/23 14:51:16;;;;;;;;;;;10.90;79.30;;;;;;5037241;28;19905;-88
2021/03/23 14:53:45;;;;;;;;;;;11.00;79.60;;;;;;5036859;28;19912;-87
2021/03/23 14:56:18;;;;;;;;;;;11.00;79.60;;;;;;5037087;28;19928;-86